sensor_id;sensor_type;location;lat;lon;timestamp;pressure;altitude;pressure_sealevel;temperature;humidity
30073;BME280;16897;52.422;13.678;2023-05-25T00:01:08;101923.34;;;13.90;42.12
30073;BME280;16897;52.422;13.678;2023-05-25T00:05:09;101912.94;;;13.89;42.23
30073;BME280;16897;52.422;13.678;2023-05-25T00:09:12;101917.63;;;13.82;42.20
30073;BME280;16897;52.422;13.678;2023-05-25T00:13:13;101905.13;;;13.70;42.21
30073;BME280;16897;52.422;13.678;2023-05-25T00:17:15;101930.91;;;13.79;42.17
30073;BME280;16897;52.422;13.678;2023-05-25T00:21:19;101931.84;;;13.78;42.26
30073;BME280;16897;52.422;13.678;2023-05-25T00:25:21;101935.41;;;13.77;42.35
30073;BME280;16897;52.422;13.678;2023-05-25T00:29:22;101921.72;;;13.70;42.36
30073;BME280;16897;52.422;13.678;2023-05-25T00:33:24;101919.16;;;13.69;42.43
30073;BME280;16897;52.422;13.678;2023-05-25T00:37:27;101941.50;;;13.78;42.43
30073;BME280;16897;52.422;13.678;2023-05-25T00:41:30;101942.72;;;13.70;42.35
30073;BME280;16897;52.422;13.678;2023-05-25T00:45:31;101944.34;;;13.73;42.44
30073;BME280;16897;52.422;13.678;2023-05-25T00:49:34;101919.78;;;13.57;42.39
30073;BME280;16897;52.422;13.678;2023-05-25T00:53:37;101940.25;;;13.67;42.49
30073;BME280;16897;52.422;13.678;2023-05-25T00:57:38;101927.56;;;13.58;42.50
30073;BME280;16897;52.422;13.678;2023-05-25T01:01:42;101937.94;;;13.61;42.55
30073;BME280;16897;52.422;13.678;2023-05-25T01:05:47;101945.66;;;13.64;42.61
30073;BME280;16897;52.422;13.678;2023-05-25T01:09:58;101917.66;;;13.46;42.49
30073;BME280;16897;52.422;13.678;2023-05-25T01:14:02;101929.56;;;13.53;42.63
30073;BME280;16897;52.422;13.678;2023-05-25T01:18:04;101899.88;;;13.34;42.65
30073;BME280;16897;52.422;13.678;2023-05-25T01:22:14;101940.97;;;13.52;42.60
30073;BME280;16897;52.422;13.678;2023-05-25T01:26:20;101948.16;;;13.48;42.63
30073;BME280;16897;52.422;13.678;2023-05-25T01:30:25;101948.38;;;13.44;42.78
30073;BME280;16897;52.422;13.678;2023-05-25T01:34:28;101946.88;;;13.38;42.71
30073;BME280;16897;52.422;13.678;2023-05-25T01:38:30;101929.88;;;13.28;42.79
30073;BME280;16897;52.422;13.678;2023-05-25T01:42:32;101935.06;;;13.30;42.78
30073;BME280;16897;52.422;13.678;2023-05-25T01:46:37;101957.53;;;13.35;42.73
30073;BME280;16897;52.422;13.678;2023-05-25T01:50:58;101953.91;;;13.38;42.90
30073;BME280;16897;52.422;13.678;2023-05-25T01:55:05;101943.47;;;13.36;42.83
30073;BME280;16897;52.422;13.678;2023-05-25T01:59:09;101932.50;;;13.28;42.97
30073;BME280;16897;52.422;13.678;2023-05-25T02:03:11;101932.50;;;13.28;42.90
30073;BME280;16897;52.422;13.678;2023-05-25T02:07:12;101954.97;;;13.34;43.00
30073;BME280;16897;52.422;13.678;2023-05-25T02:11:14;101951.44;;;13.35;42.97
30073;BME280;16897;52.422;13.678;2023-05-25T02:15:16;101942.94;;;13.30;42.91
30073;BME280;16897;52.422;13.678;2023-05-25T02:19:18;101903.06;;;13.02;42.99
30073;BME280;16897;52.422;13.678;2023-05-25T02:23:20;101939.63;;;13.24;43.00
30073;BME280;16897;52.422;13.678;2023-05-25T02:27:22;101933.13;;;13.14;42.99
30073;BME280;16897;52.422;13.678;2023-05-25T02:31:23;101910.00;;;13.03;43.03
30073;BME280;16897;52.422;13.678;2023-05-25T02:35:25;101930.59;;;13.13;42.98
30073;BME280;16897;52.422;13.678;2023-05-25T02:39:27;101906.06;;;12.95;43.16
30073;BME280;16897;52.422;13.678;2023-05-25T02:43:29;101943.59;;;13.14;43.07
30073;BME280;16897;52.422;13.678;2023-05-25T02:47:31;101939.44;;;13.10;43.04
30073;BME280;16897;52.422;13.678;2023-05-25T02:51:33;101951.63;;;13.11;43.18
30073;BME280;16897;52.422;13.678;2023-05-25T02:55:34;101929.59;;;12.96;43.27
30073;BME280;16897;52.422;13.678;2023-05-25T02:59:38;101933.97;;;12.96;43.20
30073;BME280;16897;52.422;13.678;2023-05-25T03:03:40;101954.75;;;13.00;43.17
30073;BME280;16897;52.422;13.678;2023-05-25T03:07:42;101963.38;;;13.02;43.12
30073;BME280;16897;52.422;13.678;2023-05-25T03:11:43;101948.84;;;12.95;43.12
30073;BME280;16897;52.422;13.678;2023-05-25T03:15:49;101947.22;;;12.93;43.28
30073;BME280;16897;52.422;13.678;2023-05-25T03:19:51;101952.47;;;12.93;43.21
30073;BME280;16897;52.422;13.678;2023-05-25T03:23:53;101948.34;;;12.87;43.28
30073;BME280;16897;52.422;13.678;2023-05-25T03:27:55;101958.03;;;12.85;43.34
30073;BME280;16897;52.422;13.678;2023-05-25T03:31:57;101958.19;;;12.82;43.36
30073;BME280;16897;52.422;13.678;2023-05-25T03:36:06;101954.25;;;12.72;43.27
30073;BME280;16897;52.422;13.678;2023-05-25T03:40:09;101966.63;;;12.70;43.35
30073;BME280;16897;52.422;13.678;2023-05-25T03:44:12;101970.06;;;12.70;43.41
30073;BME280;16897;52.422;13.678;2023-05-25T03:48:16;101957.50;;;12.58;43.40
30073;BME280;16897;52.422;13.678;2023-05-25T03:52:18;101960.91;;;12.60;43.33
30073;BME280;16897;52.422;13.678;2023-05-25T03:56:20;101960.19;;;12.56;43.36
30073;BME280;16897;52.422;13.678;2023-05-25T04:00:22;101960.13;;;12.58;43.53
30073;BME280;16897;52.422;13.678;2023-05-25T04:04:24;101956.78;;;12.54;43.53
30073;BME280;16897;52.422;13.678;2023-05-25T04:08:27;101951.88;;;12.47;43.56
30073;BME280;16897;52.422;13.678;2023-05-25T04:12:29;101948.59;;;12.42;43.62
30073;BME280;16897;52.422;13.678;2023-05-25T04:16:30;101977.75;;;12.54;43.53
30073;BME280;16897;52.422;13.678;2023-05-25T04:20:34;101979.38;;;12.57;43.53
30073;BME280;16897;52.422;13.678;2023-05-25T04:24:36;101980.31;;;12.56;43.49
30073;BME280;16897;52.422;13.678;2023-05-25T04:28:37;101987.13;;;12.60;43.65
30073;BME280;16897;52.422;13.678;2023-05-25T04:32:49;101935.25;;;12.27;43.68
30073;BME280;16897;52.422;13.678;2023-05-25T04:37:06;101992.22;;;12.63;43.70
30073;BME280;16897;52.422;13.678;2023-05-25T04:41:09;101997.41;;;12.65;43.72
30073;BME280;16897;52.422;13.678;2023-05-25T04:45:12;102001.53;;;12.70;43.65
30073;BME280;16897;52.422;13.678;2023-05-25T04:49:17;102006.78;;;12.70;43.83
30073;BME280;16897;52.422;13.678;2023-05-25T04:53:20;102002.97;;;12.77;43.88
30073;BME280;16897;52.422;13.678;2023-05-25T04:57:21;102005.22;;;12.85;43.85
30073;BME280;16897;52.422;13.678;2023-05-25T05:01:24;101986.78;;;12.88;43.95
30073;BME280;16897;52.422;13.678;2023-05-25T05:05:31;101996.63;;;13.02;44.14
30073;BME280;16897;52.422;13.678;2023-05-25T05:09:36;101996.16;;;13.13;44.09
30073;BME280;16897;52.422;13.678;2023-05-25T05:13:38;102000.91;;;13.23;44.16
30073;BME280;16897;52.422;13.678;2023-05-25T05:17:40;101989.47;;;13.26;44.15
30073;BME280;16897;52.422;13.678;2023-05-25T05:21:42;101992.56;;;13.34;44.15
30073;BME280;16897;52.422;13.678;2023-05-25T05:25:44;102000.50;;;13.52;44.32
30073;BME280;16897;52.422;13.678;2023-05-25T05:29:46;101986.16;;;13.59;44.36
30073;BME280;16897;52.422;13.678;2023-05-25T05:33:48;101999.91;;;13.83;44.44
30073;BME280;16897;52.422;13.678;2023-05-25T05:37:51;102012.03;;;14.03;44.57
30073;BME280;16897;52.422;13.678;2023-05-25T05:41:53;102016.41;;;14.21;44.65
30073;BME280;16897;52.422;13.678;2023-05-25T05:45:55;101964.00;;;14.18;44.87
30073;BME280;16897;52.422;13.678;2023-05-25T05:49:57;102000.56;;;14.57;44.92
30073;BME280;16897;52.422;13.678;2023-05-25T05:53:58;102020.63;;;14.93;45.03
30073;BME280;16897;52.422;13.678;2023-05-25T05:58:00;101995.84;;;14.97;45.12
30073;BME280;16897;52.422;13.678;2023-05-25T06:02:02;102033.44;;;15.48;45.02
30073;BME280;16897;52.422;13.678;2023-05-25T06:06:05;102027.22;;;15.65;45.00
30073;BME280;16897;52.422;13.678;2023-05-25T06:10:08;102029.22;;;15.93;45.23
30073;BME280;16897;52.422;13.678;2023-05-25T06:14:10;101966.59;;;15.67;45.13
30073;BME280;16897;52.422;13.678;2023-05-25T06:18:11;102026.50;;;16.25;45.07
30073;BME280;16897;52.422;13.678;2023-05-25T06:22:13;102023.63;;;16.44;45.12
30073;BME280;16897;52.422;13.678;2023-05-25T06:26:14;102030.38;;;16.64;44.98
30073;BME280;16897;52.422;13.678;2023-05-25T06:30:16;102036.44;;;16.80;44.99
30073;BME280;16897;52.422;13.678;2023-05-25T06:34:18;102007.38;;;16.66;44.92
30073;BME280;16897;52.422;13.678;2023-05-25T06:38:21;102015.34;;;16.80;44.87
30073;BME280;16897;52.422;13.678;2023-05-25T06:42:23;102062.66;;;17.12;44.76
30073;BME280;16897;52.422;13.678;2023-05-25T06:46:29;102062.09;;;17.21;44.80
30073;BME280;16897;52.422;13.678;2023-05-25T06:50:33;102051.13;;;17.28;44.92
30073;BME280;16897;52.422;13.678;2023-05-25T06:54:34;102061.78;;;17.40;44.96
30073;BME280;16897;52.422;13.678;2023-05-25T06:58:36;102055.91;;;17.50;44.83
30073;BME280;16897;52.422;13.678;2023-05-25T07:02:38;102055.81;;;17.65;44.98
30073;BME280;16897;52.422;13.678;2023-05-25T07:06:39;102045.03;;;17.68;44.64
30073;BME280;16897;52.422;13.678;2023-05-25T07:10:40;102029.19;;;17.68;44.94
30073;BME280;16897;52.422;13.678;2023-05-25T07:14:42;102056.88;;;18.04;44.72
30073;BME280;16897;52.422;13.678;2023-05-25T07:18:48;102047.34;;;18.14;44.96
30073;BME280;16897;52.422;13.678;2023-05-25T07:22:49;102037.66;;;18.28;44.91
30073;BME280;16897;52.422;13.678;2023-05-25T07:26:51;102057.00;;;18.55;44.73
30073;BME280;16897;52.422;13.678;2023-05-25T07:30:52;102016.66;;;18.52;45.24
30073;BME280;16897;52.422;13.678;2023-05-25T07:34:54;102053.56;;;18.93;44.94
30073;BME280;16897;52.422;13.678;2023-05-25T07:38:56;102036.25;;;19.00;44.85
30073;BME280;16897;52.422;13.678;2023-05-25T07:42:58;102069.41;;;19.32;44.99
30073;BME280;16897;52.422;13.678;2023-05-25T07:46:59;102045.00;;;19.39;45.21
30073;BME280;16897;52.422;13.678;2023-05-25T07:51:01;102057.16;;;19.67;44.65
30073;BME280;16897;52.422;13.678;2023-05-25T07:55:05;102022.38;;;19.72;44.96
30073;BME280;16897;52.422;13.678;2023-05-25T07:59:06;102063.53;;;20.13;44.70
30073;BME280;16897;52.422;13.678;2023-05-25T08:03:08;102061.31;;;20.31;44.82
30073;BME280;16897;52.422;13.678;2023-05-25T08:07:09;102055.81;;;20.45;44.72
30073;BME280;16897;52.422;13.678;2023-05-25T08:11:11;102045.84;;;20.60;44.71
30073;BME280;16897;52.422;13.678;2023-05-25T08:15:13;102047.34;;;20.75;44.41
30073;BME280;16897;52.422;13.678;2023-05-25T08:19:14;102050.38;;;20.82;44.49
30073;BME280;16897;52.422;13.678;2023-05-25T08:23:16;102056.53;;;20.94;44.31
30073;BME280;16897;52.422;13.678;2023-05-25T08:27:18;102059.31;;;21.04;44.65
30073;BME280;16897;52.422;13.678;2023-05-25T08:31:19;102066.81;;;21.21;44.40
30073;BME280;16897;52.422;13.678;2023-05-25T08:35:20;102073.47;;;21.38;44.40
30073;BME280;16897;52.422;13.678;2023-05-25T08:39:22;102066.09;;;21.53;44.27
30073;BME280;16897;52.422;13.678;2023-05-25T08:43:23;102057.03;;;21.55;44.09
30073;BME280;16897;52.422;13.678;2023-05-25T08:47:24;102032.13;;;21.56;44.24
30073;BME280;16897;52.422;13.678;2023-05-25T08:51:28;102070.47;;;21.86;43.84
30073;BME280;16897;52.422;13.678;2023-05-25T08:55:32;102049.94;;;21.88;43.79
30073;BME280;16897;52.422;13.678;2023-05-25T08:59:46;102072.09;;;22.09;43.98
30073;BME280;16897;52.422;13.678;2023-05-25T09:03:50;102065.94;;;22.09;43.79
30073;BME280;16897;52.422;13.678;2023-05-25T09:07:52;102010.88;;;21.88;43.62
30073;BME280;16897;52.422;13.678;2023-05-25T09:11:57;102053.31;;;22.22;43.75
30073;BME280;16897;52.422;13.678;2023-05-25T09:15:58;102062.31;;;22.42;43.47
30073;BME280;16897;52.422;13.678;2023-05-25T09:20:00;102040.16;;;22.42;43.63
30073;BME280;16897;52.422;13.678;2023-05-25T09:24:02;102074.09;;;22.70;43.50
30073;BME280;16897;52.422;13.678;2023-05-25T09:28:04;102074.94;;;22.71;43.39
30073;BME280;16897;52.422;13.678;2023-05-25T09:32:08;102074.81;;;22.72;43.38
30073;BME280;16897;52.422;13.678;2023-05-25T09:36:11;102071.59;;;22.69;43.07
30073;BME280;16897;52.422;13.678;2023-05-25T09:40:15;102051.78;;;22.62;43.15
30073;BME280;16897;52.422;13.678;2023-05-25T09:44:17;102087.94;;;22.85;42.77
30073;BME280;16897;52.422;13.678;2023-05-25T09:48:20;102088.50;;;22.89;42.79
30073;BME280;16897;52.422;13.678;2023-05-25T09:52:22;102087.69;;;22.88;42.79
30073;BME280;16897;52.422;13.678;2023-05-25T09:56:23;102071.25;;;22.83;42.64
30073;BME280;16897;52.422;13.678;2023-05-25T10:00:25;102078.31;;;22.94;42.82
30073;BME280;16897;52.422;13.678;2023-05-25T10:04:26;102071.63;;;23.00;42.74
30073;BME280;16897;52.422;13.678;2023-05-25T10:08:28;102077.03;;;23.09;42.85
30073;BME280;16897;52.422;13.678;2023-05-25T10:12:31;102078.88;;;23.18;42.42
30073;BME280;16897;52.422;13.678;2023-05-25T10:16:33;102089.44;;;23.30;42.33
30073;BME280;16897;52.422;13.678;2023-05-25T10:20:35;102068.69;;;23.33;42.65
30073;BME280;16897;52.422;13.678;2023-05-25T10:24:56;102084.88;;;23.51;42.42
30073;BME280;16897;52.422;13.678;2023-05-25T10:29:00;102079.53;;;23.51;42.35
30073;BME280;16897;52.422;13.678;2023-05-25T10:33:04;102080.41;;;23.61;42.41
30073;BME280;16897;52.422;13.678;2023-05-25T10:37:06;102066.97;;;23.63;42.00
30073;BME280;16897;52.422;13.678;2023-05-25T10:41:09;102077.25;;;23.77;42.42
30073;BME280;16897;52.422;13.678;2023-05-25T10:45:11;102074.75;;;23.85;42.32
30073;BME280;16897;52.422;13.678;2023-05-25T10:49:13;102077.97;;;23.89;42.19
30073;BME280;16897;52.422;13.678;2023-05-25T10:53:25;102071.63;;;23.80;41.72
30073;BME280;16897;52.422;13.678;2023-05-25T10:57:27;102065.31;;;23.72;41.69
30073;BME280;16897;52.422;13.678;2023-05-25T11:01:29;102072.91;;;23.76;41.58
30073;BME280;16897;52.422;13.678;2023-05-25T11:05:37;102075.31;;;23.79;41.52
30073;BME280;16897;52.422;13.678;2023-05-25T11:09:40;102031.69;;;23.59;41.42
30073;BME280;16897;52.422;13.678;2023-05-25T11:13:47;102080.06;;;23.85;41.61
30073;BME280;16897;52.422;13.678;2023-05-25T11:17:58;102063.63;;;23.80;41.78
30073;BME280;16897;52.422;13.678;2023-05-25T11:22:13;102046.50;;;23.83;41.24
30073;BME280;16897;52.422;13.678;2023-05-25T11:26:19;102075.59;;;23.96;41.58
30073;BME280;16897;52.422;13.678;2023-05-25T11:30:26;102024.91;;;23.76;41.31
30073;BME280;16897;52.422;13.678;2023-05-25T11:34:29;102062.38;;;23.94;41.36
30073;BME280;16897;52.422;13.678;2023-05-25T11:38:32;102057.19;;;23.93;41.33
30073;BME280;16897;52.422;13.678;2023-05-25T11:42:35;102067.72;;;23.94;41.32
30073;BME280;16897;52.422;13.678;2023-05-25T11:46:40;102055.38;;;23.93;41.32
30073;BME280;16897;52.422;13.678;2023-05-25T11:50:43;102057.75;;;23.96;41.32
30073;BME280;16897;52.422;13.678;2023-05-25T11:54:45;102056.75;;;23.97;41.02
30073;BME280;16897;52.422;13.678;2023-05-25T11:58:47;102055.09;;;23.96;40.72
30073;BME280;16897;52.422;13.678;2023-05-25T12:02:49;102048.50;;;23.91;40.76
30073;BME280;16897;52.422;13.678;2023-05-25T12:06:51;102044.56;;;23.85;41.11
30073;BME280;16897;52.422;13.678;2023-05-25T12:10:52;102049.59;;;23.98;41.14
30073;BME280;16897;52.422;13.678;2023-05-25T12:14:54;102058.91;;;24.03;40.76
30073;BME280;16897;52.422;13.678;2023-05-25T12:18:55;102048.78;;;24.07;41.03
30073;BME280;16897;52.422;13.678;2023-05-25T12:22:57;102035.97;;;24.11;40.79
30073;BME280;16897;52.422;13.678;2023-05-25T12:26:59;102051.84;;;24.22;40.80
30073;BME280;16897;52.422;13.678;2023-05-25T12:35:23;102041.31;;;24.20;40.50
30073;BME280;16897;52.422;13.678;2023-05-25T12:43:39;102034.03;;;24.22;40.51
30073;BME280;16897;52.422;13.678;2023-05-25T12:47:40;102036.94;;;24.29;40.75
30073;BME280;16897;52.422;13.678;2023-05-25T12:51:45;102042.53;;;24.36;40.54
30073;BME280;16897;52.422;13.678;2023-05-25T12:55:47;102041.28;;;24.40;40.58
30073;BME280;16897;52.422;13.678;2023-05-25T12:59:48;102042.44;;;24.47;40.71
30073;BME280;16897;52.422;13.678;2023-05-25T13:03:56;102032.72;;;24.46;40.68
30073;BME280;16897;52.422;13.678;2023-05-25T13:07:58;102012.47;;;24.43;40.48
30073;BME280;16897;52.422;13.678;2023-05-25T13:12:00;102019.06;;;24.59;40.00
30073;BME280;16897;52.422;13.678;2023-05-25T13:16:03;102028.34;;;24.64;40.54
30073;BME280;16897;52.422;13.678;2023-05-25T13:20:05;102027.91;;;24.59;40.28
30073;BME280;16897;52.422;13.678;2023-05-25T13:24:06;102006.84;;;24.56;40.07
30073;BME280;16897;52.422;13.678;2023-05-25T13:28:07;102039.44;;;24.69;39.93
30073;BME280;16897;52.422;13.678;2023-05-25T13:32:09;102045.06;;;24.66;39.90
30073;BME280;16897;52.422;13.678;2023-05-25T13:36:10;102025.84;;;24.53;39.86
30073;BME280;16897;52.422;13.678;2023-05-25T13:40:12;102030.75;;;24.48;40.24
30073;BME280;16897;52.422;13.678;2023-05-25T13:44:13;102037.22;;;24.45;40.04
30073;BME280;16897;52.422;13.678;2023-05-25T13:48:15;102038.31;;;24.43;40.22
30073;BME280;16897;52.422;13.678;2023-05-25T13:52:17;101988.63;;;24.22;39.88
30073;BME280;16897;52.422;13.678;2023-05-25T13:56:18;102020.63;;;24.51;39.96
30073;BME280;16897;52.422;13.678;2023-05-25T14:00:20;102021.50;;;24.52;40.00
30073;BME280;16897;52.422;13.678;2023-05-25T14:04:21;102035.94;;;24.59;40.18
30073;BME280;16897;52.422;13.678;2023-05-25T14:08:23;102006.84;;;24.56;39.71
30073;BME280;16897;52.422;13.678;2023-05-25T14:12:25;102012.91;;;24.58;39.83
30073;BME280;16897;52.422;13.678;2023-05-25T14:16:26;102013.31;;;24.63;39.93
30073;BME280;16897;52.422;13.678;2023-05-25T14:20:27;102009.03;;;24.70;40.04
30073;BME280;16897;52.422;13.678;2023-05-25T14:24:29;101996.38;;;24.72;39.98
30073;BME280;16897;52.422;13.678;2023-05-25T14:28:30;101982.78;;;24.66;39.82
30073;BME280;16897;52.422;13.678;2023-05-25T14:32:31;102013.22;;;24.83;39.89
30073;BME280;16897;52.422;13.678;2023-05-25T14:36:33;101989.66;;;24.68;39.36
30073;BME280;16897;52.422;13.678;2023-05-25T14:40:34;101992.03;;;24.71;39.86
30073;BME280;16897;52.422;13.678;2023-05-25T14:44:35;102001.84;;;24.81;39.63
30073;BME280;16897;52.422;13.678;2023-05-25T14:48:37;102001.94;;;24.89;39.41
30073;BME280;16897;52.422;13.678;2023-05-25T14:52:38;101999.97;;;24.91;39.30
30073;BME280;16897;52.422;13.678;2023-05-25T14:56:39;101987.44;;;24.91;39.28
30073;BME280;16897;52.422;13.678;2023-05-25T15:00:41;102008.06;;;25.09;39.61
30073;BME280;16897;52.422;13.678;2023-05-25T15:04:42;102001.00;;;25.08;39.24
30073;BME280;16897;52.422;13.678;2023-05-25T15:08:43;101997.63;;;25.06;39.58
30073;BME280;16897;52.422;13.678;2023-05-25T15:12:45;101997.50;;;25.07;39.01
30073;BME280;16897;52.422;13.678;2023-05-25T15:16:46;101987.09;;;25.04;39.13
30073;BME280;16897;52.422;13.678;2023-05-25T15:20:48;101994.00;;;25.07;39.50
30073;BME280;16897;52.422;13.678;2023-05-25T15:24:49;101984.47;;;24.94;39.41
30073;BME280;16897;52.422;13.678;2023-05-25T15:28:50;102005.28;;;25.01;38.97
30073;BME280;16897;52.422;13.678;2023-05-25T15:32:52;101973.28;;;24.81;38.95
30073;BME280;16897;52.422;13.678;2023-05-25T15:36:54;101995.22;;;24.85;38.83
30073;BME280;16897;52.422;13.678;2023-05-25T15:40:55;102004.91;;;24.86;38.96
30073;BME280;16897;52.422;13.678;2023-05-25T15:44:57;102010.16;;;24.78;39.03
30073;BME280;16897;52.422;13.678;2023-05-25T15:48:58;101985.75;;;24.63;39.18
30073;BME280;16897;52.422;13.678;2023-05-25T15:53:00;101994.19;;;24.58;39.29
30073;BME280;16897;52.422;13.678;2023-05-25T15:57:02;101981.56;;;24.50;39.32
30073;BME280;16897;52.422;13.678;2023-05-25T16:01:03;101996.47;;;24.53;39.34
30073;BME280;16897;52.422;13.678;2023-05-25T16:05:05;101980.41;;;24.43;39.02
30073;BME280;16897;52.422;13.678;2023-05-25T16:09:07;101992.38;;;24.49;39.05
30073;BME280;16897;52.422;13.678;2023-05-25T16:13:09;101989.13;;;24.36;39.17
30073;BME280;16897;52.422;13.678;2023-05-25T16:17:11;101964.03;;;24.19;38.80
30073;BME280;16897;52.422;13.678;2023-05-25T16:21:12;101961.41;;;24.09;39.28
30073;BME280;16897;52.422;13.678;2023-05-25T16:25:14;101988.91;;;24.19;39.15
30073;BME280;16897;52.422;13.678;2023-05-25T16:29:16;101985.84;;;24.14;39.20
30073;BME280;16897;52.422;13.678;2023-05-25T16:33:17;101945.53;;;23.88;39.10
30073;BME280;16897;52.422;13.678;2023-05-25T16:37:22;101979.78;;;24.02;39.05
30073;BME280;16897;52.422;13.678;2023-05-25T16:41:23;101988.63;;;24.03;38.82
30073;BME280;16897;52.422;13.678;2023-05-25T16:45:25;101979.09;;;23.91;38.89
30073;BME280;16897;52.422;13.678;2023-05-25T16:49:26;101982.50;;;23.93;38.99
30073;BME280;16897;52.422;13.678;2023-05-25T16:53:28;101971.81;;;23.83;38.90
30073;BME280;16897;52.422;13.678;2023-05-25T16:57:29;101964.22;;;23.78;38.90
30073;BME280;16897;52.422;13.678;2023-05-25T17:01:31;101957.16;;;23.68;38.82
30073;BME280;16897;52.422;13.678;2023-05-25T17:05:32;101961.13;;;23.73;39.00
30073;BME280;16897;52.422;13.678;2023-05-25T17:09:34;101970.25;;;23.80;39.09
30073;BME280;16897;52.422;13.678;2023-05-25T17:13:35;101943.97;;;23.56;38.64
30073;BME280;16897;52.422;13.678;2023-05-25T17:17:37;101945.25;;;23.52;38.76
30073;BME280;16897;52.422;13.678;2023-05-25T17:21:38;101984.00;;;23.66;38.57
30073;BME280;16897;52.422;13.678;2023-05-25T17:25:40;101974.56;;;23.62;38.62
30073;BME280;16897;52.422;13.678;2023-05-25T17:29:42;101957.44;;;23.45;38.59
30073;BME280;16897;52.422;13.678;2023-05-25T17:33:44;101946.91;;;23.34;38.95
30073;BME280;16897;52.422;13.678;2023-05-25T17:37:48;101979.03;;;23.52;38.85
30073;BME280;16897;52.422;13.678;2023-05-25T17:41:49;101948.59;;;23.25;38.76
30073;BME280;16897;52.422;13.678;2023-05-25T17:45:51;101947.28;;;23.19;38.96
30073;BME280;16897;52.422;13.678;2023-05-25T17:49:53;101986.47;;;23.38;38.60
30073;BME280;16897;52.422;13.678;2023-05-25T17:53:55;101991.41;;;23.33;38.75
30073;BME280;16897;52.422;13.678;2023-05-25T17:57:57;101996.81;;;23.22;38.52
30073;BME280;16897;52.422;13.678;2023-05-25T18:01:58;101983.88;;;23.08;38.63
30073;BME280;16897;52.422;13.678;2023-05-25T18:06:00;101984.69;;;22.99;38.64
30073;BME280;16897;52.422;13.678;2023-05-25T18:10:01;101981.56;;;22.93;39.02
30073;BME280;16897;52.422;13.678;2023-05-25T18:14:03;102006.00;;;22.99;38.88
30073;BME280;16897;52.422;13.678;2023-05-25T18:18:05;102004.81;;;22.91;38.96
30073;BME280;16897;52.422;13.678;2023-05-25T18:22:08;101994.72;;;22.85;38.75
30073;BME280;16897;52.422;13.678;2023-05-25T18:26:09;101996.53;;;22.85;38.72
30073;BME280;16897;52.422;13.678;2023-05-25T18:30:11;101972.03;;;22.60;38.99
30073;BME280;16897;52.422;13.678;2023-05-25T18:34:13;101996.19;;;22.68;39.02
30073;BME280;16897;52.422;13.678;2023-05-25T18:38:14;101979.69;;;22.53;39.02
30073;BME280;16897;52.422;13.678;2023-05-25T18:42:16;102014.22;;;22.65;38.92
30073;BME280;16897;52.422;13.678;2023-05-25T18:46:18;102018.97;;;22.61;38.91
30073;BME280;16897;52.422;13.678;2023-05-25T18:50:20;102004.19;;;22.47;39.10
30073;BME280;16897;52.422;13.678;2023-05-25T18:54:22;102017.63;;;22.46;38.88
30073;BME280;16897;52.422;13.678;2023-05-25T18:58:23;102017.03;;;22.42;38.68
30073;BME280;16897;52.422;13.678;2023-05-25T19:02:24;102027.13;;;22.39;39.15
30073;BME280;16897;52.422;13.678;2023-05-25T19:06:26;102026.06;;;22.30;39.14
30073;BME280;16897;52.422;13.678;2023-05-25T19:10:27;102033.00;;;22.21;39.11
30073;BME280;16897;52.422;13.678;2023-05-25T19:14:29;102026.88;;;22.09;38.62
30073;BME280;16897;52.422;13.678;2023-05-25T19:18:33;102045.69;;;22.18;39.08
30073;BME280;16897;52.422;13.678;2023-05-25T19:22:35;102034.38;;;22.04;38.76
30073;BME280;16897;52.422;13.678;2023-05-25T19:26:36;102045.53;;;21.98;38.97
30073;BME280;16897;52.422;13.678;2023-05-25T19:30:39;102035.38;;;21.92;39.03
30073;BME280;16897;52.422;13.678;2023-05-25T19:34:42;102054.84;;;21.93;39.04
30073;BME280;16897;52.422;13.678;2023-05-25T19:38:43;102030.03;;;21.71;38.66
30073;BME280;16897;52.422;13.678;2023-05-25T19:42:47;102018.56;;;21.59;39.17
30073;BME280;16897;52.422;13.678;2023-05-25T19:46:49;102061.41;;;21.88;39.03
30073;BME280;16897;52.422;13.678;2023-05-25T19:50:51;102016.06;;;21.58;38.87
30073;BME280;16897;52.422;13.678;2023-05-25T19:54:55;102007.50;;;21.43;38.84
30073;BME280;16897;52.422;13.678;2023-05-25T19:58:57;102065.44;;;21.72;38.80
30073;BME280;16897;52.422;13.678;2023-05-25T20:02:59;102061.00;;;21.61;38.99
30073;BME280;16897;52.422;13.678;2023-05-25T20:07:01;102054.84;;;21.49;38.94
30073;BME280;16897;52.422;13.678;2023-05-25T20:11:03;102072.25;;;21.42;39.21
30073;BME280;16897;52.422;13.678;2023-05-25T20:15:05;102076.47;;;21.33;39.28
30073;BME280;16897;52.422;13.678;2023-05-25T20:19:07;102071.28;;;21.20;39.23
30073;BME280;16897;52.422;13.678;2023-05-25T20:23:13;102067.66;;;21.10;38.96
30073;BME280;16897;52.422;13.678;2023-05-25T20:27:18;102080.34;;;21.07;38.89
30073;BME280;16897;52.422;13.678;2023-05-25T20:31:20;102085.00;;;21.03;39.15
30073;BME280;16897;52.422;13.678;2023-05-25T20:35:23;102075.72;;;20.86;39.13
30073;BME280;16897;52.422;13.678;2023-05-25T20:39:24;102075.22;;;20.81;39.43
30073;BME280;16897;52.422;13.678;2023-05-25T20:43:26;102074.09;;;20.61;39.30
30073;BME280;16897;52.422;13.678;2023-05-25T20:47:27;102099.19;;;20.68;39.29
30073;BME280;16897;52.422;13.678;2023-05-25T20:51:28;102093.88;;;20.57;39.19
30073;BME280;16897;52.422;13.678;2023-05-25T20:55:31;102083.09;;;20.47;39.40
30073;BME280;16897;52.422;13.678;2023-05-25T20:59:32;102103.25;;;20.50;38.99